CMP209 MNMG-MHTG
Flight info
| Callsign | CMP209 |
|---|---|
| Flight time | 0h 26m |
| Altitude | 20000 |
| Route | ILESU1 ILESU DCT LIBIS LIBIS1A |
| Aircraft | B738/M-SDE2E3FGHIRWXY/LB1 |
Departure
| Time | 2026-04-26 21:54 |
|---|---|
| Airport | Augusto C. Sandino (Managua) International Airport (MNMG) |
Arrival
| Time | 2026-04-26 22:21 |
|---|---|
| Airport | Toncontín Airport (MHTG) |
| Time | Latitude | Longitude | Altitude | Speed | Heading |
|---|---|---|---|---|---|
| 2026-04-26 21:48 | 12.14414 | -86.17228 | 199 ft | 0 kts | 25° |
| 2026-04-26 21:49 | 12.14403 | -86.17233 | 199 ft | 3 kts | 25° |
| 2026-04-26 21:49 | 12.14384 | -86.17242 | 199 ft | 3 kts | 25° |
| 2026-04-26 21:49 | 12.14365 | -86.17251 | 199 ft | 3 kts | 25° |
| 2026-04-26 21:49 | 12.14346 | -86.17260 | 199 ft | 3 kts | 25° |
| 2026-04-26 21:50 | 12.14334 | -86.17265 | 199 ft | 1 kts | 334° |
| 2026-04-26 21:51 | 12.14339 | -86.17268 | 199 ft | 3 kts | 323° |
| 2026-04-26 21:51 | 12.14347 | -86.17294 | 199 ft | 4 kts | 279° |
| 2026-04-26 21:52 | 12.14352 | -86.17342 | 199 ft | 12 kts | 276° |
| 2026-04-26 21:52 | 12.14362 | -86.17450 | 200 ft | 26 kts | 275° |
| 2026-04-26 21:52 | 12.14385 | -86.17636 | 200 ft | 25 kts | 276° |
| 2026-04-26 21:52 | 12.14393 | -86.17764 | 203 ft | 9 kts | 260° |
| 2026-04-26 21:53 | 12.14363 | -86.17811 | 207 ft | 8 kts | 230° |
| 2026-04-26 21:53 | 12.14325 | -86.17865 | 204 ft | 11 kts | 234° |
| 2026-04-26 21:53 | 12.14275 | -86.17842 | 205 ft | 10 kts | 108° |
| 2026-04-26 21:53 | 12.14260 | -86.17726 | 213 ft | 40 kts | 97° |
| 2026-04-26 21:54 | 12.14200 | -86.17192 | 199 ft | 110 kts | 97° |
| 2026-04-26 21:54 | 12.14085 | -86.16233 | 258 ft | 158 kts | 99° |
| 2026-04-26 21:54 | 12.13938 | -86.15083 | 812 ft | 169 kts | 101° |
| 2026-04-26 21:54 | 12.13793 | -86.13783 | 1045 ft | 202 kts | 96° |
| 2026-04-26 21:55 | 12.13700 | -86.12355 | 1868 ft | 201 kts | 95° |
| 2026-04-26 21:55 | 12.13594 | -86.10870 | 2421 ft | 222 kts | 95° |
| 2026-04-26 21:55 | 12.13463 | -86.09181 | 2645 ft | 255 kts | 95° |
| 2026-04-26 21:55 | 12.13644 | -86.07321 | 3221 ft | 270 kts | 67° |
| 2026-04-26 21:56 | 12.14748 | -86.05800 | 4173 ft | 269 kts | 36° |
| 2026-04-26 21:56 | 12.16462 | -86.05069 | 5071 ft | 271 kts | 5° |
| 2026-04-26 21:56 | 12.18311 | -86.05399 | 5967 ft | 276 kts | 333° |
| 2026-04-26 21:56 | 12.19942 | -86.06459 | 6778 ft | 280 kts | 337° |
| 2026-04-26 21:57 | 12.21836 | -86.06824 | 7635 ft | 278 kts | 358° |
| 2026-04-26 21:57 | 12.23781 | -86.06970 | 8503 ft | 282 kts | 355° |
| 2026-04-26 21:57 | 12.25746 | -86.07219 | 9314 ft | 287 kts | 352° |
| 2026-04-26 21:57 | 12.27658 | -86.07841 | 10106 ft | 292 kts | 333° |
| 2026-04-26 21:58 | 12.29464 | -86.08915 | 10584 ft | 311 kts | 330° |
| 2026-04-26 21:58 | 12.31366 | -86.10092 | 10760 ft | 336 kts | 330° |
| 2026-04-26 21:58 | 12.33435 | -86.11382 | 10922 ft | 359 kts | 330° |
| 2026-04-26 21:58 | 12.35625 | -86.12744 | 11151 ft | 376 kts | 329° |
| 2026-04-26 21:59 | 12.37880 | -86.14141 | 11721 ft | 381 kts | 329° |
| 2026-04-26 21:59 | 12.40161 | -86.15546 | 12419 ft | 382 kts | 329° |
| 2026-04-26 21:59 | 12.42451 | -86.16953 | 12976 ft | 387 kts | 329° |
| 2026-04-26 21:59 | 12.44782 | -86.18381 | 13561 ft | 391 kts | 329° |
| 2026-04-26 22:00 | 12.47118 | -86.19812 | 14150 ft | 393 kts | 330° |
| 2026-04-26 22:00 | 12.49471 | -86.21251 | 14751 ft | 394 kts | 329° |
| 2026-04-26 22:00 | 12.51837 | -86.22697 | 15187 ft | 399 kts | 329° |
| 2026-04-26 22:00 | 12.54241 | -86.24166 | 15665 ft | 403 kts | 329° |
| 2026-04-26 22:01 | 12.56620 | -86.25620 | 16257 ft | 403 kts | 329° |
| 2026-04-26 22:01 | 12.59066 | -86.27116 | 16751 ft | 407 kts | 329° |
| 2026-04-26 22:01 | 12.60683 | -86.28106 | 17044 ft | 410 kts | 329° |
| 2026-04-26 22:01 | 12.63147 | -86.29613 | 17481 ft | 414 kts | 329° |
| 2026-04-26 22:02 | 12.66427 | -86.31621 | 18182 ft | 415 kts | 329° |
| 2026-04-26 22:02 | 12.68102 | -86.32646 | 18451 ft | 417 kts | 329° |
| 2026-04-26 22:02 | 12.70612 | -86.34183 | 18783 ft | 421 kts | 329° |
| 2026-04-26 22:02 | 12.73092 | -86.35702 | 19351 ft | 415 kts | 329° |
| 2026-04-26 22:03 | 12.75548 | -86.37206 | 19718 ft | 404 kts | 329° |
| 2026-04-26 22:03 | 12.77958 | -86.38683 | 19863 ft | 408 kts | 329° |
| 2026-04-26 22:03 | 12.80430 | -86.40198 | 19875 ft | 419 kts | 329° |
| 2026-04-26 22:03 | 12.82962 | -86.41751 | 19868 ft | 430 kts | 329° |
| 2026-04-26 22:04 | 12.85557 | -86.43342 | 19865 ft | 438 kts | 329° |
| 2026-04-26 22:04 | 12.88194 | -86.44958 | 19868 ft | 443 kts | 329° |
| 2026-04-26 22:04 | 12.90841 | -86.46582 | 19875 ft | 446 kts | 329° |
| 2026-04-26 22:04 | 12.93499 | -86.48214 | 19872 ft | 446 kts | 329° |
| 2026-04-26 22:05 | 12.96169 | -86.49853 | 19862 ft | 448 kts | 329° |
| 2026-04-26 22:05 | 12.98857 | -86.51503 | 19864 ft | 452 kts | 329° |
| 2026-04-26 22:05 | 13.01561 | -86.53164 | 19855 ft | 453 kts | 329° |
| 2026-04-26 22:05 | 13.04261 | -86.54822 | 19865 ft | 450 kts | 329° |
| 2026-04-26 22:06 | 13.06941 | -86.56446 | 19855 ft | 447 kts | 331° |
| 2026-04-26 22:06 | 13.09714 | -86.57827 | 19864 ft | 450 kts | 336° |
| 2026-04-26 22:06 | 13.12657 | -86.59072 | 19879 ft | 452 kts | 338° |
| 2026-04-26 22:06 | 13.15556 | -86.60222 | 19871 ft | 453 kts | 339° |
| 2026-04-26 22:07 | 13.18496 | -86.61379 | 19862 ft | 452 kts | 339° |
| 2026-04-26 22:07 | 13.21421 | -86.62548 | 19859 ft | 450 kts | 338° |
| 2026-04-26 22:07 | 13.24326 | -86.63733 | 19864 ft | 448 kts | 338° |
| 2026-04-26 22:07 | 13.27214 | -86.64930 | 19860 ft | 447 kts | 338° |
| 2026-04-26 22:08 | 13.30090 | -86.66135 | 19858 ft | 446 kts | 337° |
| 2026-04-26 22:08 | 13.32964 | -86.67347 | 19861 ft | 445 kts | 337° |
| 2026-04-26 22:08 | 13.35829 | -86.68558 | 19867 ft | 445 kts | 337° |
| 2026-04-26 22:08 | 13.38693 | -86.69770 | 19869 ft | 445 kts | 337° |
| 2026-04-26 22:09 | 13.41523 | -86.70967 | 19871 ft | 446 kts | 337° |
| 2026-04-26 22:09 | 13.44431 | -86.72198 | 19872 ft | 447 kts | 337° |
| 2026-04-26 22:09 | 13.47270 | -86.73398 | 19869 ft | 447 kts | 337° |
| 2026-04-26 22:09 | 13.50157 | -86.74619 | 19868 ft | 448 kts | 337° |
| 2026-04-26 22:10 | 13.53041 | -86.75838 | 19872 ft | 448 kts | 337° |
| 2026-04-26 22:10 | 13.55933 | -86.77062 | 19860 ft | 448 kts | 337° |
| 2026-04-26 22:10 | 13.58816 | -86.78282 | 19868 ft | 448 kts | 337° |
| 2026-04-26 22:10 | 13.61701 | -86.79502 | 19864 ft | 448 kts | 337° |
| 2026-04-26 22:11 | 13.64578 | -86.80721 | 19886 ft | 448 kts | 337° |
| 2026-04-26 22:11 | 13.67465 | -86.81943 | 19885 ft | 448 kts | 337° |
| 2026-04-26 22:11 | 13.70348 | -86.83164 | 19875 ft | 448 kts | 337° |
| 2026-04-26 22:11 | 13.73226 | -86.84383 | 19878 ft | 448 kts | 337° |
| 2026-04-26 22:12 | 13.76107 | -86.85604 | 19886 ft | 448 kts | 337° |
| 2026-04-26 22:12 | 13.78964 | -86.86815 | 19880 ft | 436 kts | 337° |
| 2026-04-26 22:12 | 13.81742 | -86.87993 | 19448 ft | 426 kts | 337° |
| 2026-04-26 22:12 | 13.84460 | -86.89145 | 18886 ft | 422 kts | 337° |
| 2026-04-26 22:13 | 13.87130 | -86.90278 | 18309 ft | 418 kts | 337° |
| 2026-04-26 22:13 | 13.89812 | -86.91416 | 17609 ft | 415 kts | 337° |
| 2026-04-26 22:13 | 13.92500 | -86.92558 | 16973 ft | 411 kts | 337° |
| 2026-04-26 22:13 | 13.95092 | -86.93659 | 16375 ft | 406 kts | 338° |
| 2026-04-26 22:14 | 13.97694 | -86.94764 | 15791 ft | 402 kts | 338° |
| 2026-04-26 22:14 | 14.00268 | -86.95856 | 15215 ft | 398 kts | 338° |
| 2026-04-26 22:14 | 14.02796 | -86.96931 | 14776 ft | 390 kts | 338° |
| 2026-04-26 22:14 | 14.05292 | -86.97992 | 14245 ft | 385 kts | 338° |
| 2026-04-26 22:15 | 14.07747 | -86.99084 | 13755 ft | 381 kts | 332° |
| 2026-04-26 22:15 | 14.09911 | -87.00539 | 13679 ft | 365 kts | 322° |
| 2026-04-26 22:15 | 14.11727 | -87.02258 | 13531 ft | 344 kts | 316° |
| 2026-04-26 22:15 | 14.13383 | -87.03938 | 13376 ft | 325 kts | 316° |
| 2026-04-26 22:16 | 14.14960 | -87.05517 | 13256 ft | 307 kts | 316° |
| 2026-04-26 22:16 | 14.16458 | -87.07008 | 13122 ft | 292 kts | 317° |
| 2026-04-26 22:16 | 14.17902 | -87.08439 | 12824 ft | 284 kts | 317° |
| 2026-04-26 22:16 | 14.19317 | -87.09839 | 12366 ft | 283 kts | 317° |
| 2026-04-26 22:17 | 14.20733 | -87.11240 | 11920 ft | 282 kts | 317° |
| 2026-04-26 22:17 | 14.22151 | -87.12642 | 11456 ft | 282 kts | 317° |
| 2026-04-26 22:17 | 14.23439 | -87.14138 | 11121 ft | 278 kts | 300° |
| 2026-04-26 22:17 | 14.23960 | -87.16020 | 10841 ft | 273 kts | 271° |
| 2026-04-26 22:18 | 14.23614 | -87.17910 | 10559 ft | 268 kts | 245° |
| 2026-04-26 22:18 | 14.22591 | -87.19472 | 10376 ft | 258 kts | 224° |
| 2026-04-26 22:18 | 14.21177 | -87.20570 | 9827 ft | 264 kts | 208° |
| 2026-04-26 22:18 | 14.19494 | -87.21390 | 9171 ft | 269 kts | 197° |
| 2026-04-26 22:19 | 14.17685 | -87.21790 | 8451 ft | 263 kts | 185° |
| 2026-04-26 22:19 | 14.15910 | -87.21779 | 7747 ft | 254 kts | 170° |
| 2026-04-26 22:19 | 14.14193 | -87.21372 | 6308 ft | 261 kts | 157° |
| 2026-04-26 22:19 | 14.12444 | -87.20721 | 5432 ft | 261 kts | 159° |
| 2026-04-26 22:20 | 14.10698 | -87.20364 | 4046 ft | 265 kts | 175° |
| 2026-04-26 22:20 | 14.08963 | -87.20585 | 3661 ft | 240 kts | 197° |
| 2026-04-26 22:20 | 14.07521 | -87.21249 | 3410 ft | 211 kts | 197° |
| 2026-04-26 22:20 | 14.06278 | -87.21649 | 3271 ft | 175 kts | 200° |
| 2026-04-26 22:21 | 14.05508 | -87.21923 | 3302 ft | 60 kts | 199° |
| 2026-04-26 22:21 | 14.05360 | -87.21977 | 3305 ft | 12 kts | 200° |
| 2026-04-26 22:21 | 14.05316 | -87.22022 | 3306 ft | 9 kts | 278° |
| 2026-04-26 22:21 | 14.05361 | -87.22051 | 3304 ft | 9 kts | 1° |